Terminal Aerodrome Forecast
Issued by NWS North Platte, NE

Home | Current Version | Previous Version | Graphics & Text | Print | Product List | Glossary On
Versions: 1 2 3 4 5 6 7 8 9 10 11 12 13
000
FTUS43 KLBF 241120
TAFVTN
TAF
KVTN 241120Z 2412/2512 36017KT 2SM -SN BKN008 OVC015
     FM241400 35015KT 4SM -SN OVC020
     FM241600 35013KT P6SM BKN025
     FM242100 34012KT P6SM BKN035 BKN250
     FM250000 34006KT P6SM BKN250=

USA.gov is the U.S. government's official web portal to all federal, state and local government web resources and services.